createdAt,value
2024-05-09T00:00:56.462Z,80.00
2024-05-09T00:03:01.471Z,79.96
2024-05-09T00:05:06.452Z,79.70
2024-05-09T00:07:11.327Z,79.86
2024-05-09T00:09:16.147Z,80.11
2024-05-09T00:11:21.251Z,79.90
2024-05-09T00:13:26.148Z,79.84
2024-05-09T00:15:34.173Z,79.71
2024-05-09T00:17:39.717Z,80.00
2024-05-09T00:19:46.993Z,80.13
2024-05-09T00:21:51.839Z,79.81
2024-05-09T00:23:56.605Z,80.15
2024-05-09T00:25:58.945Z,80.49
2024-05-09T00:28:03.810Z,80.87
2024-05-09T00:30:07.472Z,80.84
2024-05-09T00:32:15.187Z,80.99
2024-05-09T00:34:20.140Z,81.06
2024-05-09T00:36:25.022Z,81.14
2024-05-09T00:38:29.901Z,81.37
2024-05-09T00:40:40.557Z,81.33
2024-05-09T00:42:49.640Z,81.09
2024-05-09T00:44:54.405Z,81.21
2024-05-09T00:46:59.382Z,81.55
2024-05-09T00:49:05.466Z,81.65
2024-05-09T00:51:10.639Z,81.76
2024-05-09T00:53:17.489Z,81.93
2024-05-09T00:55:23.971Z,82.05
2024-05-09T00:57:29.627Z,82.37
2024-05-09T00:59:35.808Z,82.59
2024-05-09T01:01:40.784Z,82.19
2024-05-09T01:03:47.955Z,82.25
2024-05-09T01:05:54.597Z,82.57
2024-05-09T01:07:59.514Z,82.74
2024-05-09T01:10:07.112Z,82.83
2024-05-09T01:12:16.423Z,82.98
2024-05-09T01:14:58.230Z,83.40
2024-05-09T01:17:03.275Z,83.26
2024-05-09T01:19:13.963Z,83.09
2024-05-09T01:21:21.426Z,83.29
2024-05-09T01:23:28.842Z,83.12
2024-05-09T01:25:33.672Z,83.51
2024-05-09T01:27:38.379Z,83.49
2024-05-09T01:29:43.067Z,83.73
2024-05-09T01:31:48.730Z,83.94
2024-05-09T01:33:53.681Z,84.12
2024-05-09T01:35:58.550Z,83.91
2024-05-09T01:38:03.426Z,84.16
2024-05-09T01:40:15.397Z,84.22
2024-05-09T01:42:23.396Z,84.19
2024-05-09T01:44:28.191Z,84.55
2024-05-09T01:46:32.960Z,84.31
2024-05-09T01:48:37.805Z,84.47
2024-05-09T01:50:43.365Z,84.41
2024-05-09T01:52:48.413Z,84.45
2024-05-09T01:54:53.145Z,84.91
2024-05-09T01:57:00.459Z,84.61
2024-05-09T01:59:06.841Z,84.86
2024-05-09T02:01:11.635Z,85.09
2024-05-09T02:03:17.771Z,85.26
2024-05-09T02:05:20.370Z,85.30
2024-05-09T02:07:25.155Z,85.36
2024-05-09T02:09:29.818Z,85.68
2024-05-09T02:11:35.240Z,85.41
2024-05-09T02:13:44.199Z,86.00
2024-05-09T02:15:52.465Z,86.11
2024-05-09T02:17:57.467Z,86.21
2024-05-09T02:19:59.717Z,86.44
2024-05-09T02:22:04.462Z,86.38
2024-05-09T02:24:06.688Z,86.66
2024-05-09T02:26:11.485Z,86.44
2024-05-09T02:28:16.179Z,86.59
2024-05-09T02:30:30.888Z,86.58
2024-05-09T02:32:43.601Z,86.75
2024-05-09T02:34:45.845Z,86.66
2024-05-09T02:36:50.631Z,86.96
2024-05-09T02:38:52.690Z,86.92
2024-05-09T02:40:57.391Z,87.37
2024-05-09T02:42:59.487Z,87.24
2024-05-09T02:45:02.074Z,87.29
2024-05-09T02:47:09.965Z,87.35
2024-05-09T02:49:12.537Z,87.43
2024-05-09T02:51:17.406Z,87.45
2024-05-09T02:53:19.880Z,87.94
2024-05-09T02:55:25.578Z,87.59
2024-05-09T02:57:27.639Z,87.87
2024-05-09T02:59:32.340Z,87.79
2024-05-09T03:01:34.544Z,88.08
2024-05-09T03:03:42.116Z,88.14
2024-05-09T03:05:44.873Z,88.31
2024-05-09T03:07:49.948Z,88.46
2024-05-09T03:09:52.020Z,88.18
2024-05-09T03:11:56.841Z,88.59
2024-05-09T03:13:58.943Z,88.60
2024-05-09T03:16:03.626Z,88.99
2024-05-09T03:18:06.546Z,88.84
2024-05-09T03:20:20.590Z,88.80
2024-05-09T03:22:26.398Z,88.94
2024-05-09T03:24:31.169Z,88.91
2024-05-09T03:26:33.388Z,89.08
2024-05-09T03:28:38.088Z,88.99
2024-05-09T03:30:42.632Z,89.15
2024-05-09T03:32:48.369Z,89.23
2024-05-09T03:34:50.583Z,89.22
2024-05-09T03:36:57.890Z,89.44
2024-05-09T03:39:02.554Z,89.39
2024-05-09T03:41:07.663Z,89.51
2024-05-09T03:43:12.370Z,89.66
2024-05-09T03:45:17.367Z,89.84
2024-05-09T03:47:19.550Z,89.69
2024-05-09T03:49:24.992Z,89.59
2024-05-09T03:51:27.190Z,89.64
2024-05-09T03:53:34.730Z,89.79
2024-05-09T03:55:36.917Z,90.02
2024-05-09T03:57:42.592Z,90.14
2024-05-09T03:59:44.660Z,90.18
2024-05-09T04:01:49.981Z,90.13
2024-05-09T04:03:52.346Z,90.02
2024-05-09T04:05:57.098Z,90.16
2024-05-09T04:07:59.199Z,90.26
2024-05-09T04:10:08.999Z,90.08
2024-05-09T04:12:14.310Z,90.19
2024-05-09T04:14:20.149Z,90.07
2024-05-09T04:16:23.502Z,90.56
2024-05-09T04:18:28.351Z,90.58
2024-05-09T04:20:37.820Z,90.81
2024-05-09T04:22:45.168Z,90.72
2024-05-09T04:24:47.344Z,90.82
2024-05-09T04:26:54.737Z,90.72
2024-05-09T04:28:56.952Z,90.89
2024-05-09T04:30:59.110Z,91.13
2024-05-09T04:33:05.570Z,91.04
2024-05-09T04:35:07.872Z,91.14
2024-05-09T04:37:12.796Z,90.89
2024-05-09T04:39:15.031Z,90.87
2024-05-09T04:41:19.711Z,90.86
2024-05-09T04:43:24.454Z,90.46
2024-05-09T04:45:29.186Z,90.94
2024-05-09T04:47:31.632Z,91.03
2024-05-09T04:49:36.460Z,90.79
2024-05-09T04:51:49.766Z,90.86
2024-05-09T04:53:57.327Z,90.49
2024-05-09T04:55:59.618Z,90.63
2024-05-09T04:58:10.188Z,90.54
2024-05-09T05:00:21.747Z,90.30
2024-05-09T05:02:33.516Z,89.97
2024-05-09T05:04:35.800Z,90.05
2024-05-09T05:06:40.571Z,89.92
2024-05-09T05:08:42.744Z,89.40
2024-05-09T05:10:48.710Z,89.39
2024-05-09T05:13:10.092Z,89.62
2024-05-09T05:15:17.672Z,89.40
2024-05-09T05:17:19.872Z,89.19
2024-05-09T05:19:24.888Z,88.83
2024-05-09T05:21:27.367Z,88.50
2024-05-09T05:23:32.109Z,88.34
2024-05-09T05:25:34.305Z,88.26
2024-05-09T05:27:39.140Z,88.27
2024-05-09T05:29:41.338Z,87.75
2024-05-09T05:31:49.000Z,87.98
2024-05-09T05:33:51.611Z,87.42
2024-05-09T05:35:57.360Z,86.98
2024-05-09T05:37:59.590Z,86.84
2024-05-09T05:40:05.712Z,86.39
2024-05-09T05:42:08.087Z,85.95
2024-05-09T05:44:14.454Z,85.58
2024-05-09T05:46:16.692Z,85.39
2024-05-09T05:48:24.276Z,85.08
2024-05-09T05:50:35.099Z,84.51
2024-05-09T05:52:42.050Z,84.05
2024-05-09T05:54:44.264Z,83.52
2024-05-09T05:56:48.989Z,82.81
2024-05-09T05:58:51.547Z,82.66
2024-05-09T06:00:56.644Z,82.18
2024-05-09T06:02:58.937Z,81.67
2024-05-09T06:05:07.146Z,81.25
2024-05-09T06:07:09.486Z,80.72
2024-05-09T06:09:14.317Z,80.44
2024-05-09T06:11:16.671Z,79.50
2024-05-09T06:13:21.535Z,79.03
2024-05-09T06:15:23.663Z,78.52
2024-05-09T06:17:28.529Z,77.85
2024-05-09T06:19:31.053Z,77.68
2024-05-09T06:21:38.524Z,76.90
2024-05-09T06:23:45.700Z,76.31
2024-05-09T06:25:50.598Z,75.99
2024-05-09T06:27:52.919Z,75.50
2024-05-09T06:29:57.827Z,75.42
2024-05-09T06:32:00.355Z,74.98
2024-05-09T06:34:05.466Z,74.60
2024-05-09T06:36:12.122Z,73.59
2024-05-09T06:38:21.425Z,73.93
2024-05-09T06:40:29.240Z,73.20
2024-05-09T06:42:39.043Z,73.04
2024-05-09T06:44:42.132Z,72.12
2024-05-09T06:46:47.022Z,71.86
2024-05-09T06:48:49.747Z,71.59
2024-05-09T06:50:54.854Z,71.12
2024-05-09T06:52:57.246Z,70.56
2024-05-09T06:55:04.801Z,70.04
2024-05-09T06:57:07.023Z,69.54
2024-05-09T06:59:11.880Z,68.99
2024-05-09T07:01:14.146Z,68.65
2024-05-09T07:03:19.736Z,68.62
2024-05-09T07:05:22.370Z,68.12
2024-05-09T07:07:27.246Z,67.69
2024-05-09T07:09:29.420Z,67.75
2024-05-09T07:11:37.783Z,67.29
2024-05-09T07:13:40.015Z,66.97
2024-05-09T07:15:45.498Z,66.17
2024-05-09T07:17:48.340Z,65.34
2024-05-09T07:19:54.048Z,64.87
2024-05-09T07:21:56.475Z,64.52
2024-05-09T07:24:01.518Z,63.74
2024-05-09T07:26:03.948Z,63.91
2024-05-09T07:28:13.155Z,63.59
2024-05-09T07:30:22.946Z,62.91
2024-05-09T07:32:32.251Z,62.72
2024-05-09T07:34:34.657Z,62.54
2024-05-09T07:36:39.770Z,62.43
2024-05-09T07:38:42.042Z,62.58
2024-05-09T07:40:47.093Z,61.94
2024-05-09T07:42:49.329Z,62.13
2024-05-09T07:45:00.984Z,61.55
2024-05-09T07:48:27.530Z,61.02
2024-05-09T07:53:52.539Z,59.94
2024-05-09T07:55:57.519Z,59.72
2024-05-09T07:58:02.494Z,59.26
2024-05-09T08:00:11.721Z,59.38
2024-05-09T08:02:19.118Z,58.76
2024-05-09T08:04:22.992Z,58.70
2024-05-09T08:06:29.437Z,58.66
2024-05-09T08:08:31.628Z,58.04
2024-05-09T08:10:36.852Z,57.13
2024-05-09T08:12:39.077Z,57.15
2024-05-09T08:14:44.228Z,56.68
2024-05-09T08:16:49.106Z,56.88
2024-05-09T08:18:53.996Z,56.46
2024-05-09T08:20:56.313Z,55.85
2024-05-09T08:23:01.376Z,55.18
2024-05-09T08:25:05.130Z,55.06
2024-05-09T08:27:10.112Z,55.35
2024-05-09T08:29:12.534Z,54.19
2024-05-09T08:31:17.414Z,53.18
2024-05-09T08:33:22.339Z,52.74
2024-05-09T08:35:27.124Z,52.83
2024-05-09T08:37:32.865Z,52.48
2024-05-09T08:39:41.876Z,52.80
2024-05-09T08:41:49.884Z,52.57
2024-05-09T08:43:54.770Z,53.09
2024-05-09T08:45:59.263Z,53.32
2024-05-09T08:48:07.786Z,52.65
2024-05-09T08:50:28.598Z,52.58
2024-05-09T08:52:40.908Z,52.13
2024-05-09T08:54:43.305Z,52.62
2024-05-09T08:56:50.023Z,52.50
2024-05-09T08:58:56.335Z,52.08
2024-05-09T09:01:02.059Z,52.01
2024-05-09T09:03:06.064Z,51.78
2024-05-09T09:05:17.074Z,51.70
2024-05-09T09:07:22.611Z,51.13
2024-05-09T09:09:29.610Z,51.31
2024-05-09T09:11:31.871Z,51.01
2024-05-09T09:13:36.633Z,50.93
2024-05-09T09:15:47.614Z,50.55
2024-05-09T09:17:57.618Z,50.35
2024-05-09T09:19:59.975Z,50.18
2024-05-09T09:22:04.842Z,49.66
2024-05-09T09:24:10.455Z,49.33
2024-05-09T09:26:18.775Z,48.90
2024-05-09T09:28:23.327Z,48.41
2024-05-09T09:30:36.533Z,47.00
2024-05-09T09:32:40.200Z,46.47
2024-05-09T09:34:45.063Z,46.20
2024-05-09T09:36:48.568Z,46.20
2024-05-09T09:38:54.538Z,46.53
2024-05-09T09:41:01.747Z,46.30
2024-05-09T09:43:08.606Z,45.71
2024-05-09T09:45:11.276Z,45.70
2024-05-09T09:47:18.104Z,45.23
2024-05-09T09:49:20.403Z,45.14
2024-05-09T09:51:25.461Z,45.40
2024-05-09T09:53:28.700Z,44.97
2024-05-09T09:55:35.355Z,45.19
2024-05-09T09:57:41.898Z,44.77
2024-05-09T09:59:49.441Z,44.85
2024-05-09T10:01:51.859Z,44.28
2024-05-09T10:03:56.988Z,43.71
2024-05-09T10:06:00.441Z,43.63
2024-05-09T10:08:08.138Z,43.63
2024-05-09T10:10:16.081Z,43.79
2024-05-09T10:12:23.509Z,43.73
2024-05-09T10:14:31.008Z,42.99
2024-05-09T10:16:36.379Z,42.90
2024-05-09T10:18:39.372Z,43.20
2024-05-09T10:20:45.568Z,43.04
2024-05-09T10:22:49.454Z,43.48
2024-05-09T10:24:55.542Z,42.94
2024-05-09T10:26:57.754Z,42.52
2024-05-09T10:29:03.513Z,42.83
2024-05-09T10:31:12.978Z,42.83
2024-05-09T10:33:20.120Z,42.52
2024-05-09T10:35:26.818Z,42.56
2024-05-09T10:37:29.520Z,42.42
2024-05-09T10:39:38.320Z,42.80
2024-05-09T10:41:40.643Z,42.36
2024-05-09T10:43:45.746Z,41.94
2024-05-09T10:45:49.297Z,41.62
2024-05-09T10:47:57.585Z,41.71
2024-05-09T10:50:00.015Z,41.45
2024-05-09T10:52:06.965Z,41.45
2024-05-09T10:54:09.181Z,41.63
2024-05-09T10:56:15.920Z,41.36
2024-05-09T10:58:18.480Z,41.97
2024-05-09T11:00:27.598Z,41.67
2024-05-09T11:02:38.602Z,41.63
2024-05-09T11:04:45.312Z,42.07
2024-05-09T11:06:50.804Z,41.36
2024-05-09T11:08:53.461Z,41.51
2024-05-09T11:10:59.690Z,41.44
2024-05-09T11:13:02.334Z,40.91
2024-05-09T11:15:07.880Z,40.58
2024-05-09T11:17:10.070Z,41.24
2024-05-09T11:19:13.855Z,40.61
2024-05-09T11:21:22.231Z,40.21
2024-05-09T11:23:26.281Z,40.31
2024-05-09T11:25:33.250Z,40.45
2024-05-09T11:27:36.102Z,40.38
2024-05-09T11:29:43.201Z,41.38
2024-05-09T11:31:46.585Z,40.72
2024-05-09T11:33:51.634Z,41.51
2024-05-09T11:35:53.903Z,41.01
2024-05-09T11:38:01.804Z,41.35
2024-05-09T11:40:07.065Z,41.21
2024-05-09T11:42:17.597Z,40.51
2024-05-09T11:44:19.761Z,39.73
2024-05-09T11:46:21.991Z,39.86
2024-05-09T11:48:27.517Z,39.15
2024-05-09T11:50:34.933Z,39.20
2024-05-09T11:52:40.909Z,39.50
2024-05-09T11:54:45.759Z,38.95
2024-05-09T11:56:51.771Z,38.58
2024-05-09T11:58:54.213Z,38.43
2024-05-09T12:00:59.296Z,38.81
2024-05-09T12:03:01.554Z,38.49
2024-05-09T12:05:07.317Z,38.96
2024-05-09T12:07:13.171Z,39.03
2024-05-09T12:09:20.178Z,38.73
2024-05-09T12:11:28.147Z,38.87
2024-05-09T12:13:33.715Z,39.07
2024-05-09T12:15:51.054Z,39.11
2024-05-09T12:17:58.989Z,40.26
2024-05-09T12:20:20.938Z,40.79
2024-05-09T12:22:29.119Z,40.72
2024-05-09T12:24:37.931Z,40.05
2024-05-09T12:26:40.512Z,39.74
2024-05-09T12:28:46.474Z,39.61
2024-05-09T12:30:53.014Z,39.73
2024-05-09T12:33:00.850Z,38.88
2024-05-09T12:35:03.972Z,38.75
2024-05-09T12:37:10.120Z,39.48
2024-05-09T12:39:13.235Z,38.77
2024-05-09T12:41:22.544Z,38.42
2024-05-09T12:43:26.739Z,38.19
2024-05-09T12:45:32.561Z,38.54
2024-05-09T12:47:39.232Z,38.58
2024-05-09T12:49:47.292Z,39.43
2024-05-09T12:51:51.494Z,39.33
2024-05-09T12:53:56.907Z,39.70
2024-05-09T12:56:02.441Z,39.14
2024-05-09T12:58:10.587Z,39.67
2024-05-09T13:00:23.389Z,39.84
2024-05-09T13:02:34.009Z,39.38
2024-05-09T13:04:39.551Z,39.50
2024-05-09T13:06:44.761Z,39.66
2024-05-09T13:08:48.016Z,39.67
2024-05-09T13:10:53.675Z,40.05
2024-05-09T13:12:55.994Z,39.75
2024-05-09T13:15:01.124Z,38.95
2024-05-09T13:17:03.613Z,38.66
2024-05-09T13:19:08.664Z,38.51
2024-05-09T13:21:13.519Z,38.19
2024-05-09T13:23:18.325Z,37.33
2024-05-09T13:25:21.253Z,37.31
2024-05-09T13:27:26.123Z,37.18
2024-05-09T13:29:28.570Z,37.02
2024-05-09T13:31:30.904Z,36.75
2024-05-09T13:33:36.119Z,36.33
2024-05-09T13:35:38.526Z,36.62
2024-05-09T13:37:46.000Z,36.71
2024-05-09T13:39:48.302Z,36.38
2024-05-09T13:41:53.116Z,36.98
2024-05-09T13:43:55.281Z,37.14
2024-05-09T13:46:00.192Z,37.57
2024-05-09T13:48:04.145Z,37.77
2024-05-09T13:50:14.209Z,37.37
2024-05-09T13:52:22.512Z,37.34
2024-05-09T13:54:30.073Z,37.05
2024-05-09T13:56:32.231Z,37.00
2024-05-09T13:58:34.694Z,36.90
2024-05-09T14:00:46.644Z,37.07
2024-05-09T14:02:51.076Z,36.75
2024-05-09T14:04:56.097Z,36.72
2024-05-09T14:06:58.464Z,36.52
2024-05-09T14:09:04.752Z,36.91
2024-05-09T14:11:09.561Z,36.96
2024-05-09T14:13:14.611Z,36.22
2024-05-09T14:15:16.880Z,36.48
2024-05-09T14:17:21.711Z,36.74
2024-05-09T14:19:23.943Z,36.49
2024-05-09T14:21:28.816Z,36.28
2024-05-09T14:23:31.104Z,36.19
2024-05-09T14:25:39.922Z,36.41
2024-05-09T14:27:46.789Z,36.46
2024-05-09T14:29:51.639Z,35.91
2024-05-09T14:31:53.840Z,35.46
2024-05-09T14:33:58.932Z,35.00
2024-05-09T14:36:01.237Z,35.29
2024-05-09T14:38:06.542Z,35.62
2024-05-09T14:40:14.787Z,36.02
2024-05-09T14:42:26.498Z,36.20
2024-05-09T14:44:31.325Z,36.64
2024-05-09T14:46:36.171Z,36.91
2024-05-09T14:48:38.674Z,36.94
2024-05-09T14:50:44.086Z,37.49
2024-05-09T14:52:46.906Z,37.52
2024-05-09T14:55:00.031Z,37.70
2024-05-09T14:57:04.343Z,37.43
2024-05-09T14:59:09.333Z,37.03
2024-05-09T15:01:14.323Z,36.92
2024-05-09T15:03:19.967Z,37.06
2024-05-09T15:05:24.058Z,36.77
2024-05-09T15:07:28.896Z,36.70
2024-05-09T15:09:36.148Z,36.21
2024-05-09T15:11:40.963Z,36.26
2024-05-09T15:13:43.115Z,35.92
2024-05-09T15:15:48.309Z,36.01
2024-05-09T15:17:53.494Z,35.82
2024-05-09T15:19:58.400Z,36.52
2024-05-09T15:22:00.547Z,36.68
2024-05-09T15:24:05.518Z,36.69
2024-05-09T15:26:07.825Z,36.88
2024-05-09T15:28:13.003Z,37.00
2024-05-09T15:30:18.141Z,37.84
2024-05-09T15:32:29.532Z,38.19
2024-05-09T15:34:34.509Z,38.35
2024-05-09T15:36:41.162Z,38.62
2024-05-09T15:38:44.824Z,38.49
2024-05-09T15:40:49.746Z,38.28
2024-05-09T15:42:52.052Z,38.66
2024-05-09T15:44:56.848Z,38.88
2024-05-09T15:46:59.000Z,39.17
2024-05-09T15:49:04.139Z,39.54
2024-05-09T15:51:09.056Z,40.03
2024-05-09T15:53:14.826Z,40.23
2024-05-09T15:55:17.094Z,40.77
2024-05-09T15:57:22.118Z,41.02
2024-05-09T15:59:24.328Z,41.37
2024-05-09T16:01:29.219Z,42.11
2024-05-09T16:03:31.565Z,42.35
2024-05-09T16:05:36.617Z,42.76
2024-05-09T16:07:41.561Z,42.87
2024-05-09T16:09:46.452Z,42.97
2024-05-09T16:11:48.709Z,43.89
2024-05-09T16:13:53.670Z,43.98
2024-05-09T16:15:56.127Z,44.30
2024-05-09T16:18:01.265Z,44.64
2024-05-09T16:20:07.071Z,44.79
2024-05-09T16:22:14.163Z,45.01
2024-05-09T16:24:18.966Z,45.37
2024-05-09T16:26:23.782Z,45.72
2024-05-09T16:28:27.376Z,45.76
2024-05-09T16:30:34.890Z,46.42
2024-05-09T16:32:44.056Z,46.45
2024-05-09T16:34:46.481Z,46.55
2024-05-09T16:36:52.201Z,47.34
2024-05-09T16:38:54.493Z,47.49
2024-05-09T16:41:02.149Z,47.92
2024-05-09T16:43:05.128Z,48.12
2024-05-09T16:45:12.316Z,48.17
2024-05-09T16:47:14.535Z,48.84
2024-05-09T16:49:19.581Z,49.27
2024-05-09T16:51:21.802Z,49.94
2024-05-09T16:53:27.803Z,49.86
2024-05-09T16:55:30.163Z,49.95
2024-05-09T16:57:37.766Z,49.97
2024-05-09T16:59:40.225Z,49.97
2024-05-09T17:01:45.275Z,50.33
2024-05-09T17:03:47.789Z,50.62
2024-05-09T17:05:53.142Z,50.64
2024-05-09T17:07:56.272Z,51.08
2024-05-09T17:10:01.096Z,51.05
2024-05-09T17:12:03.412Z,51.42
2024-05-09T17:14:10.856Z,51.91
2024-05-09T17:16:18.198Z,52.19
2024-05-09T17:18:21.048Z,52.35
2024-05-09T17:20:32.621Z,52.69
2024-05-09T17:22:37.993Z,52.84
2024-05-09T17:24:43.280Z,52.79
2024-05-09T17:26:45.899Z,53.24
2024-05-09T17:28:50.853Z,53.44
2024-05-09T17:30:55.939Z,53.55
2024-05-09T17:33:01.232Z,53.66
2024-05-09T17:35:04.387Z,53.81
2024-05-09T17:37:09.453Z,54.49
2024-05-09T17:39:11.742Z,54.82
2024-05-09T17:41:16.545Z,54.86
2024-05-09T17:43:18.995Z,54.90
2024-05-09T17:45:21.264Z,55.24
2024-05-09T17:47:28.832Z,55.25
2024-05-09T17:49:31.188Z,55.03
2024-05-09T17:51:36.663Z,55.38
2024-05-09T17:53:40.100Z,55.47
2024-05-09T17:55:44.949Z,55.92
2024-05-09T17:57:47.328Z,56.35
2024-05-09T17:59:54.002Z,56.47
2024-05-09T18:01:56.247Z,56.59
2024-05-09T18:04:04.094Z,57.14
2024-05-09T18:06:06.590Z,57.21
2024-05-09T18:08:12.729Z,57.48
2024-05-09T18:10:21.952Z,57.68
2024-05-09T18:12:31.086Z,57.82
2024-05-09T18:14:33.332Z,58.04
2024-05-09T18:16:38.207Z,58.40
2024-05-09T18:18:41.083Z,58.48
2024-05-09T18:20:48.771Z,58.36
2024-05-09T18:22:51.014Z,58.16
2024-05-09T18:24:55.933Z,58.17
2024-05-09T18:26:59.366Z,58.22
2024-05-09T18:29:04.546Z,58.18
2024-05-09T18:31:06.772Z,57.93
2024-05-09T18:33:12.708Z,58.10
2024-05-09T18:35:15.582Z,58.06
2024-05-09T18:37:23.211Z,58.24
2024-05-09T18:39:25.433Z,57.70
2024-05-09T18:41:30.207Z,58.48
2024-05-09T18:43:38.469Z,58.32
2024-05-09T18:45:49.855Z,58.55
2024-05-09T18:47:52.383Z,58.32
2024-05-09T18:49:57.223Z,58.47
2024-05-09T18:51:59.450Z,58.61
2024-05-09T18:54:07.085Z,58.70
2024-05-09T18:56:09.366Z,58.79
2024-05-09T18:58:14.270Z,59.07
2024-05-09T19:00:27.041Z,59.12
2024-05-09T19:02:38.948Z,59.46
2024-05-09T19:04:41.404Z,59.45
2024-05-09T19:06:46.783Z,59.51
2024-05-09T19:08:48.972Z,59.77
2024-05-09T19:10:56.672Z,60.31
2024-05-09T19:12:59.034Z,60.41
2024-05-09T19:15:03.842Z,60.99
2024-05-09T19:17:06.117Z,61.08
2024-05-09T19:19:11.200Z,60.95
2024-05-09T19:21:14.543Z,61.12
2024-05-09T19:23:19.383Z,61.45
2024-05-09T19:25:21.751Z,61.93
2024-05-09T19:27:29.281Z,61.94
2024-05-09T19:29:31.645Z,62.32
2024-05-09T19:31:36.564Z,62.28
2024-05-09T19:33:38.904Z,62.48
2024-05-09T19:35:44.230Z,62.54
2024-05-09T19:37:48.935Z,62.52
2024-05-09T19:39:53.708Z,62.94
2024-05-09T19:41:55.993Z,63.09
2024-05-09T19:44:03.931Z,63.22
2024-05-09T19:46:06.219Z,63.61
2024-05-09T19:48:11.469Z,64.06
2024-05-09T19:50:19.566Z,63.80
2024-05-09T19:52:28.025Z,64.40
2024-05-09T19:54:30.193Z,64.62
2024-05-09T19:56:34.956Z,64.60
2024-05-09T19:58:37.339Z,65.22
2024-05-09T20:00:45.067Z,65.37
2024-05-09T20:02:47.359Z,65.77
2024-05-09T20:04:52.332Z,65.88
2024-05-09T20:06:54.541Z,66.05
2024-05-09T20:08:59.726Z,65.91
2024-05-09T20:11:02.026Z,66.05
2024-05-09T20:13:08.183Z,66.42
2024-05-09T20:15:10.859Z,66.34
2024-05-09T20:17:18.296Z,66.37
2024-05-09T20:19:20.559Z,66.58
2024-05-09T20:21:25.313Z,66.62
2024-05-09T20:23:27.439Z,67.12
2024-05-09T20:25:32.270Z,66.81
2024-05-09T20:27:34.509Z,67.28
2024-05-09T20:29:39.266Z,67.96
2024-05-09T20:31:41.386Z,68.14
2024-05-09T20:33:48.894Z,68.32
2024-05-09T20:35:51.565Z,68.68
2024-05-09T20:37:56.636Z,68.74
2024-05-09T20:39:58.828Z,68.87
2024-05-09T20:42:04.993Z,68.97
2024-05-09T20:44:07.163Z,68.98
2024-05-09T20:46:11.894Z,69.05
2024-05-09T20:48:14.195Z,69.01
2024-05-09T20:50:29.082Z,69.33
2024-05-09T20:52:38.952Z,69.45
2024-05-09T20:54:43.801Z,69.60
2024-05-09T20:56:46.020Z,69.50
2024-05-09T20:58:50.895Z,69.87
2024-05-09T21:00:53.185Z,69.71
2024-05-09T21:02:58.105Z,69.88
2024-05-09T21:05:00.599Z,70.04
2024-05-09T21:07:08.427Z,70.08
2024-05-09T21:09:10.630Z,69.99
2024-05-09T21:11:15.420Z,70.21
2024-05-09T21:13:17.565Z,70.08
2024-05-09T21:15:22.319Z,70.52
2024-05-09T21:17:24.474Z,70.15
2024-05-09T21:19:29.226Z,70.20
2024-05-09T21:21:38.962Z,70.09
2024-05-09T21:23:46.371Z,70.58
2024-05-09T21:25:48.455Z,70.30
2024-05-09T21:27:53.458Z,70.50
2024-05-09T21:29:55.746Z,70.51
2024-05-09T21:32:00.467Z,70.85
2024-05-09T21:34:02.671Z,70.31
2024-05-09T21:36:08.127Z,70.58
2024-05-09T21:38:10.367Z,70.74
2024-05-09T21:40:26.994Z,71.20
2024-05-09T21:42:35.906Z,71.31
2024-05-09T21:44:40.648Z,71.37
2024-05-09T21:46:42.982Z,71.60
2024-05-09T21:48:47.973Z,71.52
2024-05-09T21:50:50.217Z,71.66
2024-05-09T21:52:54.925Z,72.20
2024-05-09T21:54:57.796Z,72.54
2024-05-09T21:57:06.529Z,72.45
2024-05-09T21:59:08.688Z,72.51
2024-05-09T22:01:14.081Z,72.88
2024-05-09T22:03:16.440Z,72.54
2024-05-09T22:05:21.565Z,72.94
2024-05-09T22:07:23.852Z,73.33
2024-05-09T22:09:28.990Z,73.29
2024-05-09T22:11:31.494Z,72.99
2024-05-09T22:13:38.991Z,73.56
2024-05-09T22:15:41.492Z,73.20
2024-05-09T22:17:46.515Z,73.65
2024-05-09T22:19:49.674Z,73.71
2024-05-09T22:21:55.524Z,74.01
2024-05-09T22:23:57.807Z,74.23
2024-05-09T22:26:02.584Z,74.27
2024-05-09T22:28:05.379Z,74.00
2024-05-09T22:30:20.978Z,74.44
2024-05-09T22:32:26.114Z,74.41
2024-05-09T22:34:28.507Z,74.57
2024-05-09T22:36:33.449Z,74.76
2024-05-09T22:38:35.735Z,74.97
2024-05-09T22:40:47.372Z,74.94
2024-05-09T22:42:51.804Z,75.14
2024-05-09T22:44:56.627Z,75.13
2024-05-09T22:47:01.499Z,75.85
2024-05-09T22:49:07.037Z,75.67
2024-05-09T22:51:09.373Z,76.26
2024-05-09T22:53:14.148Z,76.22
2024-05-09T22:55:16.384Z,76.12
2024-05-09T22:57:21.314Z,76.46
2024-05-09T22:59:23.484Z,76.66
2024-05-09T23:01:28.297Z,76.87
2024-05-09T23:03:33.283Z,76.99
2024-05-09T23:05:38.676Z,77.24
2024-05-09T23:07:40.890Z,77.12
2024-05-09T23:09:47.656Z,77.12
2024-05-09T23:11:50.197Z,77.23
2024-05-09T23:13:54.984Z,77.26
2024-05-09T23:15:57.195Z,76.70
2024-05-09T23:18:02.202Z,76.80
2024-05-09T23:20:11.502Z,76.85
2024-05-09T23:22:16.690Z,77.24
2024-05-09T23:24:18.836Z,77.00
2024-05-09T23:26:23.969Z,77.21
2024-05-09T23:28:26.151Z,77.29
2024-05-09T23:30:37.544Z,77.11
2024-05-09T23:32:46.860Z,77.19
2024-05-09T23:34:51.683Z,77.27
2024-05-09T23:36:56.555Z,77.28
2024-05-09T23:39:01.371Z,77.79
2024-05-09T23:41:03.742Z,77.36
2024-05-09T23:43:09.288Z,77.70
2024-05-09T23:45:11.706Z,77.17
2024-05-09T23:47:16.651Z,77.06
2024-05-09T23:49:18.895Z,77.58
2024-05-09T23:51:23.678Z,77.41
2024-05-09T23:53:28.492Z,77.89
2024-05-09T23:55:33.726Z,77.65
2024-05-09T23:57:35.959Z,77.19
2024-05-09T23:59:40.784Z,77.72
